Time;durP1;ratioP1;P1;durP2;ratioP2;P2;SDS_P1;SDS_P2;PMS_P1;PMS_P2;Temp;Humidity;BMP_temperature;BMP_pressure;BME280_temperature;BME280_humidity;BME280_pressure;Samples;Min_cycle;Max_cycle;Signal;HPM_P1;HPM_P2
2022/07/27 00:01:17;;;;;;;6.80;4.00;;;17.60;99.90;;;;;;5115025;28;20574;-77
2022/07/27 00:03:46;;;;;;;6.47;3.70;;;17.50;99.90;;;;;;5115164;28;20210;-77
2022/07/27 00:06:15;;;;;;;5.40;3.50;;;17.50;99.90;;;;;;5115205;28;20220;-76
2022/07/27 00:08:43;;;;;;;5.80;4.20;;;17.50;99.90;;;;;;5114946;28;20249;-76
2022/07/27 00:11:12;;;;;;;6.23;3.90;;;17.40;99.90;;;;;;5115785;28;20589;-76
2022/07/27 00:13:40;;;;;;;5.20;3.80;;;17.40;99.90;;;;;;5114894;28;20638;-77
2022/07/27 00:16:10;;;;;;;3.93;3.53;;;17.40;99.90;;;;;;5114464;28;20616;-76
2022/07/27 00:18:39;;;;;;;4.70;3.60;;;17.40;99.90;;;;;;5115307;28;20234;-76
2022/07/27 00:21:08;;;;;;;8.30;4.07;;;17.40;99.90;;;;;;5114830;28;20259;-78
2022/07/27 00:23:36;;;;;;;7.73;3.60;;;17.40;99.90;;;;;;5115091;28;20210;-77
2022/07/27 00:26:04;;;;;;;4.17;3.47;;;17.40;99.90;;;;;;5115061;28;20256;-76
2022/07/27 00:28:32;;;;;;;5.27;3.80;;;17.40;99.90;;;;;;5115210;28;20772;-74
2022/07/27 00:31:00;;;;;;;6.67;4.00;;;17.30;99.90;;;;;;5132219;27;20206;-76
2022/07/27 00:33:32;;;;;;;6.63;3.80;;;17.30;99.90;;;;;;5135444;27;20252;-77
2022/07/27 00:36:01;;;;;;;5.73;3.90;;;17.30;99.90;;;;;;5134785;27;20215;-76
2022/07/27 00:38:29;;;;;;;5.20;4.00;;;17.20;99.90;;;;;;5135445;27;20261;-76
2022/07/27 00:40:57;;;;;;;5.77;3.67;;;17.10;99.90;;;;;;5135877;27;20221;-76
2022/07/27 00:43:26;;;;;;;8.97;4.13;;;17.10;99.90;;;;;;5136360;27;20300;-76
2022/07/27 00:45:54;;;;;;;5.30;3.90;;;17.00;99.90;;;;;;5137004;27;20210;-76
2022/07/27 00:48:23;;;;;;;5.20;3.93;;;17.00;99.90;;;;;;5135529;27;20199;-76
2022/07/27 00:50:56;;;;;;;5.67;4.10;;;16.90;99.90;;;;;;5135237;27;20569;-77
2022/07/27 00:53:24;;;;;;;4.50;3.93;;;16.90;99.90;;;;;;5146261;27;20201;-75
2022/07/27 00:55:53;;;;;;;7.27;4.20;;;16.80;99.90;;;;;;5135408;27;20209;-76
2022/07/27 00:58:22;;;;;;;7.20;3.67;;;16.80;99.90;;;;;;5135090;27;20259;-76
2022/07/27 01:00:50;;;;;;;6.73;3.90;;;16.70;99.90;;;;;;5136362;27;20292;-75
2022/07/27 01:03:21;;;;;;;4.37;3.77;;;16.80;99.90;;;;;;5135496;27;20675;-77
2022/07/27 01:05:50;;;;;;;5.70;3.83;;;16.70;99.90;;;;;;5134849;27;20177;-77
2022/07/27 01:08:21;;;;;;;5.57;3.77;;;16.70;99.90;;;;;;5134769;27;20205;-77
2022/07/27 01:10:50;;;;;;;6.37;3.90;;;16.80;99.90;;;;;;5134911;27;20301;-76
2022/07/27 01:13:18;;;;;;;5.10;3.70;;;16.80;99.90;;;;;;5134637;27;20608;-77
2022/07/27 01:15:47;;;;;;;5.70;3.63;;;16.80;99.90;;;;;;5134984;27;20259;-74
2022/07/27 01:18:28;;;;;;;6.67;3.40;;;16.80;99.90;;;;;;5134760;27;20221;-76
2022/07/27 01:20:57;;;;;;;4.57;3.47;;;16.80;99.90;;;;;;5133968;27;20237;-76
2022/07/27 01:23:27;;;;;;;3.43;3.03;;;16.80;99.90;;;;;;5134625;27;20296;-76
2022/07/27 01:25:55;;;;;;;6.33;3.70;;;16.80;99.90;;;;;;5135163;28;20189;-76
2022/07/27 01:28:24;;;;;;;7.67;3.90;;;16.80;99.90;;;;;;5134640;28;20605;-77
2022/07/27 01:30:52;;;;;;;5.27;3.40;;;16.80;99.90;;;;;;5135208;28;20209;-77
2022/07/27 01:33:24;;;;;;;6.37;3.57;;;16.80;99.90;;;;;;5136784;27;20216;-77
2022/07/27 01:35:54;;;;;;;4.60;3.30;;;16.80;99.90;;;;;;5138779;27;20281;-75
2022/07/27 01:38:23;;;;;;;6.10;3.60;;;16.70;99.90;;;;;;5138835;27;20308;-77
2022/07/27 01:40:53;;;;;;;3.77;3.20;;;16.80;99.90;;;;;;5138490;27;20243;-78
2022/07/27 01:43:22;;;;;;;5.53;3.20;;;16.70;99.90;;;;;;5138460;27;20244;-77
2022/07/27 01:45:50;;;;;;;5.60;3.13;;;16.60;99.90;;;;;;5138712;27;20292;-77
2022/07/27 01:48:19;;;;;;;6.07;3.43;;;16.60;99.90;;;;;;5137554;27;20206;-76
2022/07/27 01:50:50;;;;;;;6.30;3.60;;;16.60;99.90;;;;;;5138918;27;20258;-77
2022/07/27 01:53:20;;;;;;;4.70;3.10;;;16.60;99.90;;;;;;5138581;27;20611;-76
2022/07/27 01:55:49;;;;;;;4.43;3.40;;;16.50;99.90;;;;;;5138135;27;20244;-78
2022/07/27 01:58:19;;;;;;;5.57;3.60;;;16.40;99.90;;;;;;5138451;27;20303;-77
2022/07/27 02:00:48;;;;;;;5.87;3.43;;;16.40;99.90;;;;;;5138207;27;20213;-77
2022/07/27 02:03:16;;;;;;;5.10;3.10;;;16.30;99.90;;;;;;5138571;27;20236;-77
2022/07/27 02:05:49;;;;;;;3.50;3.00;;;16.30;99.90;;;;;;5138096;27;20205;-77
2022/07/27 02:08:18;;;;;;;5.00;3.20;;;16.30;99.90;;;;;;5137973;27;20289;-76
2022/07/27 02:13:34;;;;;;;5.37;3.17;;;16.20;99.90;;;;;;5137967;27;20266;-76
2022/07/27 02:16:02;;;;;;;4.93;3.07;;;16.10;99.90;;;;;;5137966;27;20205;-76
2022/07/27 02:18:38;;;;;;;3.67;3.00;;;16.10;99.90;;;;;;5138135;27;20208;-77
2022/07/27 02:21:06;;;;;;;4.73;2.90;;;16.00;99.90;;;;;;5137958;27;20201;-78
2022/07/27 02:23:35;;;;;;;3.37;3.00;;;16.00;99.90;;;;;;5137837;27;20243;-77
2022/07/27 02:26:04;;;;;;;3.87;2.87;;;16.00;99.90;;;;;;5138306;27;20251;-78
2022/07/27 02:28:35;;;;;;;3.57;2.70;;;15.90;99.90;;;;;;5138064;27;20198;-76
2022/07/27 02:31:03;;;;;;;3.93;2.87;;;15.90;99.90;;;;;;5138751;27;20242;-76
2022/07/27 02:33:32;;;;;;;5.33;3.13;;;15.80;99.90;;;;;;5138381;27;20284;-77
2022/07/27 02:36:00;;;;;;;6.37;3.37;;;15.90;99.90;;;;;;5138563;27;20206;-77
2022/07/27 02:38:29;;;;;;;4.77;3.30;;;15.90;99.90;;;;;;5137864;27;20239;-76
2022/07/27 02:40:57;;;;;;;5.47;3.17;;;15.90;99.90;;;;;;5137489;27;20316;-78
2022/07/27 02:43:25;;;;;;;5.17;3.00;;;15.90;99.90;;;;;;5136937;27;20633;-78
2022/07/27 02:45:55;;;;;;;8.23;3.30;;;15.80;99.90;;;;;;5137665;27;20288;-77
2022/07/27 02:48:29;;;;;;;5.90;3.50;;;15.80;99.90;;;;;;5137827;27;20269;-76
2022/07/27 02:51:00;;;;;;;5.73;3.17;;;15.70;99.90;;;;;;5138308;27;20223;-75
2022/07/27 02:53:29;;;;;;;4.30;3.37;;;15.70;99.90;;;;;;5137784;27;20249;-76
2022/07/27 02:55:57;;;;;;;4.93;3.33;;;15.70;99.90;;;;;;5138096;27;20244;-77
2022/07/27 02:58:25;;;;;;;4.13;3.37;;;15.70;99.90;;;;;;5138291;27;20298;-78
2022/07/27 03:00:55;;;;;;;5.80;3.33;;;15.80;99.90;;;;;;5138400;27;20217;-77
2022/07/27 03:03:27;;;;;;;6.00;3.43;;;15.80;99.90;;;;;;5140389;27;20202;-75
2022/07/27 03:06:04;;;;;;;4.53;3.30;;;15.90;99.90;;;;;;5140572;27;20647;-75
2022/07/27 03:08:32;;;;;;;7.83;3.20;;;16.00;99.90;;;;;;5142048;27;20197;-75
2022/07/27 03:11:00;;;;;;;6.03;3.73;;;16.00;99.90;;;;;;5142371;27;20210;-77
2022/07/27 03:13:29;;;;;;;4.10;3.40;;;16.10;99.90;;;;;;5140484;27;20240;-77
2022/07/27 03:15:59;;;;;;;5.20;3.43;;;16.10;99.90;;;;;;5146101;27;20244;-77
2022/07/27 03:18:27;;;;;;;6.17;3.67;;;16.20;99.90;;;;;;5157848;27;20221;-77
2022/07/27 03:20:55;;;;;;;5.80;3.60;;;16.20;99.90;;;;;;5159061;27;20201;-77
2022/07/27 03:23:24;;;;;;;6.87;3.70;;;16.20;99.90;;;;;;5159416;27;20190;-78
2022/07/27 03:25:53;;;;;;;5.83;3.53;;;16.20;99.90;;;;;;5159612;27;20198;-76
2022/07/27 03:28:21;;;;;;;6.03;4.20;;;16.30;99.90;;;;;;5159966;27;20202;-78
2022/07/27 03:30:50;;;;;;;6.30;3.77;;;16.30;99.90;;;;;;5159717;27;20205;-76
2022/07/27 03:33:19;;;;;;;4.53;3.50;;;16.30;99.90;;;;;;5159874;27;20178;-76
2022/07/27 03:35:47;;;;;;;9.03;3.70;;;16.30;99.90;;;;;;5160556;27;20249;-78
2022/07/27 03:38:16;;;;;;;8.57;3.57;;;16.30;99.90;;;;;;5160013;27;20206;-79
2022/07/27 03:40:44;;;;;;;7.43;3.80;;;16.40;99.90;;;;;;5153652;27;20255;-77
2022/07/27 03:43:12;;;;;;;4.17;3.40;;;16.40;99.90;;;;;;5152959;27;20228;-77
2022/07/27 03:45:40;;;;;;;7.40;3.87;;;16.30;99.90;;;;;;5156375;27;20228;-77
2022/07/27 03:48:11;;;;;;;8.93;3.73;;;16.30;99.90;;;;;;5138947;28;20206;-79
2022/07/27 03:50:41;;;;;;;7.60;3.70;;;16.30;99.90;;;;;;5127007;28;20278;-80
2022/07/27 03:53:09;;;;;;;5.13;3.93;;;16.30;99.90;;;;;;5137228;28;20202;-78
2022/07/27 03:55:37;;;;;;;4.93;3.73;;;16.30;99.90;;;;;;5136502;28;20259;-77
2022/07/27 03:58:06;;;;;;;5.20;3.97;;;16.30;99.90;;;;;;5137328;28;20202;-79
2022/07/27 04:00:35;;;;;;;6.73;3.93;;;16.30;99.90;;;;;;5136989;28;20218;-77
2022/07/27 04:03:03;;;;;;;6.53;3.50;;;16.30;99.90;;;;;;5142508;27;20212;-78
2022/07/27 04:05:32;;;;;;;5.83;3.10;;;16.30;99.90;;;;;;5156508;27;20242;-77
2022/07/27 04:08:01;;;;;;;4.33;3.50;;;16.30;99.90;;;;;;5155137;27;20197;-78
2022/07/27 04:10:29;;;;;;;6.67;3.20;;;16.30;99.90;;;;;;5155575;27;20193;-79
2022/07/27 04:12:58;;;;;;;4.07;3.50;;;16.20;99.90;;;;;;5155746;27;20197;-77
2022/07/27 04:15:28;;;;;;;9.37;3.63;;;16.20;99.90;;;;;;5153800;27;20189;-78
2022/07/27 04:17:56;;;;;;;6.73;4.07;;;16.30;99.90;;;;;;5146162;27;20209;-75
2022/07/27 04:20:27;;;;;;;5.10;3.73;;;16.30;99.90;;;;;;5130382;28;20226;-76
2022/07/27 04:22:55;;;;;;;8.40;3.53;;;16.30;99.90;;;;;;5142076;27;20781;-77
2022/07/27 04:25:25;;;;;;;6.23;4.00;;;16.30;99.90;;;;;;5157032;27;20224;-76
2022/07/27 04:27:56;;;;;;;8.33;4.30;;;16.30;99.90;;;;;;5156517;27;20227;-77
2022/07/27 04:30:24;;;;;;;7.10;4.50;;;16.40;99.90;;;;;;5157180;27;20170;-77
2022/07/27 04:32:52;;;;;;;6.77;4.63;;;16.50;99.90;;;;;;5156629;27;20206;-77
2022/07/27 04:35:21;;;;;;;8.87;4.53;;;16.50;99.90;;;;;;5145954;27;20230;-76
2022/07/27 04:37:54;;;;;;;8.47;4.20;;;16.50;99.90;;;;;;5135876;28;20195;-77
2022/07/27 04:40:32;;;;;;;8.03;3.90;;;16.60;99.90;;;;;;5153971;27;20221;-77
2022/07/27 04:43:02;;;;;;;6.93;3.60;;;16.60;99.90;;;;;;5155004;27;20216;-76
2022/07/27 04:45:30;;;;;;;7.77;3.53;;;16.70;99.90;;;;;;5154140;27;20208;-79
2022/07/27 04:47:59;;;;;;;7.17;3.60;;;16.70;99.90;;;;;;5139941;27;20209;-77
2022/07/27 04:50:27;;;;;;;8.20;3.63;;;16.80;99.90;;;;;;5139791;27;20205;-78
2022/07/27 04:52:56;;;;;;;5.13;3.47;;;16.80;99.90;;;;;;5139981;27;20198;-76
2022/07/27 04:55:24;;;;;;;7.63;3.53;;;16.90;99.90;;;;;;5137189;27;20256;-77
2022/07/27 04:57:53;;;;;;;7.77;3.50;;;16.90;99.90;;;;;;5139303;27;20614;-76
2022/07/27 05:00:24;;;;;;;5.90;3.50;;;17.00;99.90;;;;;;5138795;27;20256;-79
2022/07/27 05:02:52;;;;;;;6.33;3.33;;;17.00;99.90;;;;;;5139437;27;20258;-76
2022/07/27 05:05:24;;;;;;;4.13;3.03;;;17.20;99.90;;;;;;5138201;27;20205;-79
2022/07/27 05:07:53;;;;;;;5.33;2.93;;;17.40;99.90;;;;;;5140404;27;20410;-77
2022/07/27 05:10:21;;;;;;;7.87;3.00;;;17.60;99.90;;;;;;5136179;27;20218;-77
2022/07/27 05:12:50;;;;;;;8.90;3.17;;;18.00;99.90;;;;;;5118055;28;20248;-79
2022/07/27 05:15:21;;;;;;;5.47;2.87;;;18.30;99.90;;;;;;5117562;28;20296;-79
2022/07/27 05:17:50;;;;;;;4.77;2.90;;;18.40;99.90;;;;;;5117850;28;20610;-78
2022/07/27 05:20:19;;;;;;;6.33;2.70;;;18.60;99.90;;;;;;5117110;28;20256;-78
2022/07/27 05:22:48;;;;;;;5.90;2.77;;;18.80;99.90;;;;;;5117235;28;20664;-78
2022/07/27 05:25:16;;;;;;;7.13;2.90;;;18.90;99.90;;;;;;5117085;28;20202;-78
2022/07/27 05:27:44;;;;;;;8.13;3.13;;;18.90;99.90;;;;;;5117240;28;20658;-78
2022/07/27 05:30:24;;;;;;;8.27;2.90;;;18.90;99.90;;;;;;5117582;28;20217;-77
2022/07/27 05:32:52;;;;;;;6.80;2.90;;;18.90;99.90;;;;;;5116772;28;20218;-78
2022/07/27 05:35:21;;;;;;;5.07;2.97;;;18.90;99.90;;;;;;5116566;28;20265;-78
2022/07/27 05:37:49;;;;;;;4.47;3.10;;;19.00;99.90;;;;;;5117261;28;20210;-79
2022/07/27 05:40:18;;;;;;;5.87;2.80;;;18.90;99.90;;;;;;5118975;28;20291;-77
2022/07/27 05:42:46;;;;;;;9.27;3.07;;;19.00;99.90;;;;;;5119303;28;20718;-78
2022/07/27 05:45:15;;;;;;;5.17;3.00;;;19.10;99.90;;;;;;5118509;28;20611;-80
2022/07/27 05:47:44;;;;;;;4.97;2.73;;;19.20;99.90;;;;;;5117911;28;20206;-78
2022/07/27 05:50:15;;;;;;;8.13;2.77;;;19.10;99.90;;;;;;5117375;28;20201;-79
2022/07/27 05:52:43;;;;;;;6.87;2.80;;;19.00;99.90;;;;;;5120347;28;20632;-79
2022/07/27 05:55:12;;;;;;;4.20;2.70;;;19.00;99.90;;;;;;5117978;28;20210;-79
2022/07/27 05:57:40;;;;;;;5.77;2.57;;;18.90;99.90;;;;;;5117961;28;20202;-78
2022/07/27 06:00:10;;;;;;;3.93;2.43;;;18.90;99.90;;;;;;5118008;28;20218;-78
2022/07/27 06:02:39;;;;;;;8.70;2.60;;;19.20;99.90;;;;;;5116692;28;20307;-78
2022/07/27 06:05:10;;;;;;;4.23;2.37;;;19.40;99.90;;;;;;5115172;28;20247;-77
2022/07/27 06:07:58;;;;;;;6.90;2.13;;;19.70;99.90;;;;;;5115539;28;20198;-77
2022/07/27 06:10:28;;;;;;;6.40;2.20;;;20.40;99.90;;;;;;5116353;28;20225;-78
2022/07/27 06:13:00;;;;;;;5.70;2.10;;;21.00;99.90;;;;;;5114773;28;20210;-78
2022/07/27 06:15:29;;;;;;;6.07;2.20;;;21.10;99.90;;;;;;5116761;28;20226;-81
2022/07/27 06:17:57;;;;;;;8.33;2.40;;;21.00;99.90;;;;;;5117755;28;20278;-79
2022/07/27 06:20:27;;;;;;;5.27;2.17;;;20.90;99.90;;;;;;5120297;28;20226;-79
2022/07/27 06:22:59;;;;;;;7.40;2.50;;;20.70;99.90;;;;;;5140277;27;20631;-78
2022/07/27 06:25:28;;;;;;;4.20;2.47;;;20.30;99.90;;;;;;5140052;27;20254;-77
2022/07/27 06:28:03;;;;;;;5.23;3.00;;;20.30;99.90;;;;;;5138843;27;20289;-78
2022/07/27 06:30:33;;;;;;;5.80;2.77;;;20.00;99.90;;;;;;5139546;27;20217;-77
2022/07/27 06:33:03;;;;;;;4.77;2.90;;;19.90;99.90;;;;;;5140543;27;20205;-77
2022/07/27 06:35:34;;;;;;;6.33;2.70;;;20.10;99.90;;;;;;5138565;27;20197;-77
2022/07/27 06:38:06;;;;;;;4.47;2.33;;;19.90;99.90;;;;;;5137987;27;20216;-77
2022/07/27 06:40:35;;;;;;;4.37;2.50;;;19.80;99.90;;;;;;5137716;27;20654;-77
2022/07/27 06:43:03;;;;;;;5.27;2.70;;;19.50;99.90;;;;;;5138100;27;20578;-77
2022/07/27 06:45:32;;;;;;;3.27;2.30;;;19.30;99.90;;;;;;5138819;27;20201;-76
2022/07/27 06:48:00;;;;;;;4.93;2.80;;;19.40;99.90;;;;;;5140081;27;20202;-76
2022/07/27 06:50:28;;;;;;;7.13;2.90;;;19.50;99.90;;;;;;5139002;27;20228;-77
2022/07/27 06:52:58;;;;;;;7.07;2.47;;;19.70;99.90;;;;;;5138409;27;20209;-77
2022/07/27 06:55:28;;;;;;;6.17;2.73;;;19.70;99.90;;;;;;5138727;27;20263;-78
2022/07/27 06:57:57;;;;;;;6.40;2.50;;;19.70;99.90;;;;;;5139922;27;20286;-78
2022/07/27 07:00:25;;;;;;;3.23;2.30;;;19.90;99.90;;;;;;5137838;27;20229;-78
2022/07/27 07:02:56;;;;;;;7.33;2.43;;;20.00;99.90;;;;;;5136976;27;20217;-77
2022/07/27 07:05:27;;;;;;;4.67;2.40;;;20.00;99.90;;;;;;5139705;27;20204;-77
2022/07/27 07:07:58;;;;;;;5.67;2.50;;;20.40;99.90;;;;;;5139090;27;20221;-78
2022/07/27 07:10:27;;;;;;;4.03;2.30;;;20.60;99.90;;;;;;5139552;27;20216;-78
2022/07/27 07:13:03;;;;;;;6.17;3.00;;;20.90;99.90;;;;;;5139608;27;20228;-79
2022/07/27 07:15:34;;;;;;;4.93;2.50;;;21.40;99.90;;;;;;5141057;27;20272;-79
2022/07/27 07:18:03;;;;;;;7.43;2.80;;;21.40;99.90;;;;;;5139756;27;20227;-78
2022/07/27 07:20:32;;;;;;;4.87;2.60;;;21.50;99.90;;;;;;5140212;27;20590;-78
2022/07/27 07:23:02;;;;;;;3.40;2.27;;;21.80;99.90;;;;;;5137987;27;20655;-79
2022/07/27 07:25:32;;;;;;;6.50;2.50;;;23.00;99.90;;;;;;5137176;27;20201;-79
2022/07/27 07:28:02;;;;;;;7.57;2.40;;;23.60;99.90;;;;;;5137340;27;20246;-80
2022/07/27 07:30:31;;;;;;;6.00;2.13;;;24.40;99.90;;;;;;5137008;27;20197;-81
2022/07/27 07:32:59;;;;;;;6.87;2.20;;;24.60;99.90;;;;;;5138160;27;20250;-79
2022/07/27 07:35:28;;;;;;;5.03;2.33;;;24.90;99.90;;;;;;5137652;27;20265;-80
2022/07/27 07:37:56;;;;;;;4.23;2.30;;;25.00;99.90;;;;;;5137142;27;20663;-79
2022/07/27 07:40:26;;;;;;;5.10;2.00;;;25.20;99.90;;;;;;5136684;27;20256;-80
2022/07/27 07:43:12;;;;;;;3.97;2.33;;;26.30;99.90;;;;;;5136543;27;20228;-80
2022/07/27 07:45:43;;;;;;;7.75;2.30;;;27.60;99.90;;;;;;5140337;27;20262;-81
2022/07/27 07:48:20;;;;;;;5.30;2.10;;;27.50;99.90;;;;;;5138634;27;20233;-80
2022/07/27 07:50:49;;;;;;;3.78;2.08;;;28.00;99.90;;;;;;5138605;27;20201;-81
2022/07/27 07:53:24;;;;;;;6.47;2.28;;;27.80;99.90;;;;;;5137467;27;20217;-81
2022/07/27 07:55:58;;;;;;;4.65;1.90;;;27.20;99.90;;;;;;5136744;27;20256;-81
2022/07/27 07:58:27;;;;;;;7.03;2.22;;;27.40;99.90;;;;;;5137451;27;20190;-80
2022/07/27 08:00:55;;;;;;;5.00;1.90;;;27.70;99.90;;;;;;5136652;27;20710;-81
2022/07/27 08:03:23;;;;;;;3.92;2.00;;;28.30;99.00;;;;;;5138362;27;20294;-80
2022/07/27 08:05:52;;;;;;;7.25;2.05;;;27.70;99.10;;;;;;5136829;27;20212;-81
2022/07/27 08:08:20;;;;;;;5.15;2.10;;;26.80;99.60;;;;;;5136276;27;20673;-79
2022/07/27 08:10:52;;;;;;;7.68;1.92;;;26.40;99.90;;;;;;5136093;27;20213;-79
2022/07/27 08:13:21;;;;;;;6.45;2.22;;;26.30;99.90;;;;;;5135688;27;20205;-79
2022/07/27 08:15:51;;;;;;;5.03;2.08;;;26.30;99.90;;;;;;5135365;27;20240;-79
2022/07/27 08:18:22;;;;;;;3.88;2.13;;;25.50;99.90;;;;;;5130481;27;20206;-78
2022/07/27 08:20:51;;;;;;;3.60;2.00;;;25.20;99.90;;;;;;5113795;28;20230;-79
2022/07/27 08:23:20;;;;;;;7.23;2.00;;;25.50;99.90;;;;;;5114793;28;20729;-78
2022/07/27 08:25:48;;;;;;;7.53;2.30;;;26.10;99.90;;;;;;5114431;28;20672;-78
2022/07/27 08:28:16;;;;;;;4.47;1.88;;;26.50;99.90;;;;;;5115427;28;20210;-79
2022/07/27 08:30:47;;;;;;;3.05;1.83;;;26.90;99.90;;;;;;5114615;28;20799;-80
2022/07/27 08:33:18;;;;;;;5.60;1.90;;;27.60;99.90;;;;;;5115523;28;20289;-79
2022/07/27 08:35:47;;;;;;;2.20;1.50;;;27.90;96.60;;;;;;5115909;28;20278;-83
2022/07/27 08:38:15;;;;;;;5.50;1.67;;;28.00;96.70;;;;;;5119283;28;20206;-80
2022/07/27 08:40:43;;;;;;;2.90;1.75;;;28.20;95.60;;;;;;5115966;28;20199;-79
2022/07/27 08:43:15;;;;;;;3.08;1.75;;;28.30;95.80;;;;;;5115599;28;20218;-81
2022/07/27 08:45:57;;;;;;;3.95;1.90;;;28.10;96.30;;;;;;5116175;28;20640;-82
2022/07/27 08:48:30;;;;;;;5.85;2.03;;;27.50;98.20;;;;;;5115845;28;20198;-80
2022/07/27 08:50:59;;;;;;;5.07;2.08;;;28.20;98.00;;;;;;5117415;28;20632;-79
2022/07/27 08:53:32;;;;;;;6.75;2.30;;;29.00;97.50;;;;;;5116279;28;20263;-80
2022/07/27 08:56:20;;;;;;;5.05;2.20;;;28.50;97.60;;;;;;5120251;28;20255;-79
2022/07/27 08:58:49;;;;;;;8.32;2.00;;;28.40;96.80;;;;;;5119123;28;20233;-80
2022/07/27 09:01:18;;;;;;;6.53;2.08;;;28.20;97.90;;;;;;5123685;28;20251;-78
2022/07/27 09:03:47;;;;;;;7.53;1.98;;;28.00;97.90;;;;;;5123668;28;20215;-78
2022/07/27 09:06:40;;;;;;;4.10;2.00;;;27.70;98.10;;;;;;5125046;28;20221;-79
2022/07/27 09:09:08;;;;;;;4.03;1.95;;;28.00;98.00;;;;;;5114817;28;20217;-79
2022/07/27 09:11:38;;;;;;;3.60;2.05;;;27.50;98.80;;;;;;5114703;28;20280;-77
2022/07/27 09:14:07;;;;;;;3.88;2.05;;;27.00;99.20;;;;;;5115190;28;20271;-79
2022/07/27 09:16:38;;;;;;;4.18;2.13;;;26.60;99.90;;;;;;5117361;28;20203;-76
2022/07/27 09:19:26;;;;;;;5.60;1.87;;;26.50;99.90;;;;;;5138572;27;20216;-78
2022/07/27 09:21:57;;;;;;;3.23;1.93;;;26.20;99.90;;;;;;5135464;27;20713;-77
2022/07/27 09:24:28;;;;;;;4.17;1.83;;;25.60;99.90;;;;;;5135801;27;20216;-76
2022/07/27 09:27:14;;;;;;;3.57;1.53;;;25.00;99.90;;;;;;5136552;27;20246;-78
2022/07/27 09:29:42;;;;;;;6.97;1.70;;;25.20;99.90;;;;;;5141136;28;20209;-82
2022/07/27 09:32:16;;;;;;;5.83;1.83;;;25.00;99.90;;;;;;5141610;28;20205;-76
2022/07/27 09:34:45;;;;;;;3.67;2.00;;;24.90;99.90;;;;;;5136097;28;20540;-78
2022/07/27 09:37:24;;;;;;;2.57;1.80;;;24.90;99.90;;;;;;5137124;28;20292;-77
2022/07/27 09:40:10;;;;;;;2.60;1.70;;;24.90;99.90;;;;;;5136211;28;20213;-77
2022/07/27 09:42:38;;;;;;;3.77;1.93;;;24.70;99.90;;;;;;5137206;28;20229;-77
2022/07/27 09:45:30;;;;;;;2.90;1.63;;;24.60;99.90;;;;;;5137891;28;20209;-77
2022/07/27 09:48:14;;;;;;;3.87;1.90;;;24.90;99.90;;;;;;5137606;28;20205;-75
2022/07/27 09:50:44;;;;;;;3.17;1.90;;;24.40;99.90;;;;;;5135749;28;20621;-78
2022/07/27 09:53:32;;;;;;;2.20;1.70;;;24.80;99.90;;;;;;5136157;27;20616;-77
2022/07/27 09:56:14;;;;;;;4.03;1.83;;;25.20;99.90;;;;;;5139621;27;20229;-77
2022/07/27 09:58:47;;;;;;;4.53;2.00;;;25.50;99.90;;;;;;5139539;27;20217;-79
2022/07/27 10:01:18;;;;;;;7.67;2.13;;;25.70;99.90;;;;;;5139288;27;20189;-77
2022/07/27 10:03:49;;;;;;;4.07;1.83;;;25.50;99.80;;;;;;5141151;27;20193;-79
2022/07/27 10:06:17;;;;;;;4.73;2.03;;;25.80;99.90;;;;;;5142702;27;20250;-79
2022/07/27 10:08:49;;;;;;;3.53;1.90;;;25.80;99.90;;;;;;5145301;27;20251;-78
2022/07/27 10:11:18;;;;;;;3.30;1.90;;;26.10;99.90;;;;;;5149714;27;20216;-79
2022/07/27 10:13:48;;;;;;;2.87;1.80;;;26.20;99.90;;;;;;5143482;27;20205;-77
2022/07/27 10:16:20;;;;;;;3.67;1.90;;;26.80;99.10;;;;;;5130060;27;20206;-79
2022/07/27 10:18:58;;;;;;;2.55;1.60;;;27.60;97.30;;;;;;5121093;28;20210;-78
2022/07/27 10:21:27;;;;;;;2.33;1.88;;;29.20;96.30;;;;;;5119288;28;20220;-81
2022/07/27 10:23:57;;;;;;;5.97;1.48;;;29.50;91.60;;;;;;5120823;28;20652;-83
2022/07/27 10:26:34;;;;;;;4.57;1.50;;;30.90;90.90;;;;;;5118101;28;20618;-83
2022/07/27 10:29:15;;;;;;;3.33;1.65;;;31.50;87.60;;;;;;5119046;28;20671;-82
2022/07/27 10:31:55;;;;;;;3.08;1.50;;;31.00;88.00;;;;;;5119312;28;20195;-81
2022/07/27 10:34:36;;;;;;;5.22;1.90;;;30.80;88.20;;;;;;5122764;28;20190;-82
2022/07/27 10:37:12;;;;;;;3.75;1.45;;;30.70;84.00;;;;;;5122604;28;20628;-82
2022/07/27 10:39:42;;;;;;;4.00;1.83;;;30.30;85.80;;;;;;5122306;28;20216;-81
2022/07/27 10:42:26;;;;;;;4.10;1.70;;;30.10;88.10;;;;;;5123056;28;20226;-80
2022/07/27 10:45:09;;;;;;;2.10;1.60;;;29.40;90.70;;;;;;5124395;28;20235;-80
2022/07/27 10:47:40;;;;;;;2.17;1.40;;;29.30;90.80;;;;;;5122092;28;20191;-80
2022/07/27 10:50:32;;;;;;;6.28;1.75;;;29.80;89.00;;;;;;5120636;28;20687;-80
2022/07/27 10:53:08;;;;;;;5.70;1.50;;;29.90;86.10;;;;;;5120838;28;20529;-80
2022/07/27 10:55:43;;;;;;;3.92;1.50;;;29.00;82.90;;;;;;5121979;28;20311;-81
2022/07/27 10:58:50;;;;;;;3.92;1.70;;;28.30;90.00;;;;;;5124940;28;20205;-78
2022/07/27 11:01:23;;;;;;;2.85;1.85;;;28.20;90.90;;;;;;5123269;28;20202;-79
2022/07/27 11:03:58;;;;;;;4.07;1.55;;;27.80;92.10;;;;;;5120901;28;20214;-80
2022/07/27 11:06:30;;;;;;;2.90;1.60;;;27.80;92.10;;;;;;5119220;28;20281;-80
2022/07/27 11:09:03;;;;;;;3.35;1.67;;;27.40;90.90;;;;;;5118950;28;20214;-77
2022/07/27 11:11:53;;;;;;;5.60;1.60;;;27.50;91.30;;;;;;5118048;28;20719;-80
2022/07/27 11:14:21;;;;;;;4.40;1.60;;;27.50;91.10;;;;;;5123846;27;20651;-79
2022/07/27 11:16:58;;;;;;;1.63;1.40;;;27.30;85.10;;;;;;5138141;27;20601;-81
2022/07/27 11:19:53;;;;;;;4.07;1.67;;;27.30;90.50;;;;;;5138457;27;20205;-80
2022/07/27 11:22:32;;;;;;;2.70;1.42;;;28.00;86.70;;;;;;5137546;27;20260;-81
2022/07/27 11:25:20;;;;;;;3.53;1.40;;;28.20;88.60;;;;;;5136719;27;20292;-81
2022/07/27 11:27:50;;;;;;;2.85;2.13;;;28.00;89.20;;;;;;5136911;27;20241;-80
2022/07/27 11:30:23;;;;;;;2.53;1.50;;;28.30;90.00;;;;;;5136723;27;20201;-79
2022/07/27 11:32:53;;;;;;;5.15;1.55;;;28.20;87.80;;;;;;5139290;27;20242;-78
2022/07/27 11:35:21;;;;;;;2.92;1.40;;;28.10;85.50;;;;;;5139134;27;20559;-80
2022/07/27 11:38:03;;;;;;;6.22;1.55;;;28.20;88.40;;;;;;5137958;27;20202;-82
2022/07/27 11:40:43;;;;;;;3.63;1.40;;;28.50;91.60;;;;;;5136855;27;20624;-81
2022/07/27 11:43:36;;;;;;;2.58;1.38;;;28.70;86.90;;;;;;5138607;27;20663;-80
2022/07/27 11:46:14;;;;;;;3.42;1.42;;;28.40;87.50;;;;;;5138066;27;20185;-80
2022/07/27 11:48:56;;;;;;;4.45;1.30;;;28.60;89.40;;;;;;5136825;27;20213;-80
2022/07/27 11:51:36;;;;;;;3.00;1.50;;;28.00;86.70;;;;;;5135977;27;20182;-82
2022/07/27 11:54:08;;;;;;;4.65;1.40;;;27.90;90.20;;;;;;5135804;27;20229;-82
2022/07/27 11:56:38;;;;;;;3.92;1.42;;;27.90;90.00;;;;;;5135614;27;20260;-83
2022/07/27 11:59:13;;;;;;;3.70;1.52;;;27.60;88.40;;;;;;5136547;27;20201;-79
2022/07/27 12:01:45;;;;;;;4.37;1.27;;;27.50;90.10;;;;;;5137925;27;20217;-81
2022/07/27 12:04:17;;;;;;;4.13;1.50;;;27.10;89.60;;;;;;5138470;27;20221;-78
2022/07/27 12:06:49;;;;;;;4.20;1.37;;;26.50;90.80;;;;;;5136358;27;20209;-81
2022/07/27 12:09:18;;;;;;;4.00;1.50;;;26.40;91.10;;;;;;5135888;27;20225;-80
2022/07/27 12:11:53;;;;;;;3.80;1.73;;;26.60;91.40;;;;;;5135786;27;20240;-80
2022/07/27 12:14:33;;;;;;;2.07;1.40;;;26.40;93.80;;;;;;5135525;27;20208;-81
2022/07/27 12:17:31;;;;;;;4.37;1.40;;;26.40;93.20;;;;;;5135653;27;20233;-79
2022/07/27 12:20:02;;;;;;;4.43;1.43;;;26.50;93.50;;;;;;5135342;27;20242;-83
2022/07/27 12:22:33;;;;;;;3.50;1.57;;;26.70;90.70;;;;;;5136886;27;20194;-78
2022/07/27 12:25:07;;;;;;;6.53;2.37;;;26.90;91.20;;;;;;5139215;27;20741;-78
2022/07/27 12:27:55;;;;;;;1.67;1.30;;;26.50;89.90;;;;;;5134946;27;20220;-79
2022/07/27 12:30:30;;;;;;;2.73;1.50;;;26.40;91.00;;;;;;5134804;27;20266;-82
2022/07/27 12:32:59;;;;;;;2.37;1.60;;;26.50;92.20;;;;;;5135202;27;20181;-81
2022/07/27 12:35:30;;;;;;;4.80;1.70;;;26.20;93.30;;;;;;5134929;27;20217;-80
2022/07/27 12:38:06;;;;;;;2.70;1.70;;;26.40;92.30;;;;;;5134888;27;20776;-80
2022/07/27 12:40:44;;;;;;;4.03;1.60;;;26.10;92.30;;;;;;5135259;27;20198;-80
2022/07/27 12:43:17;;;;;;;1.97;1.33;;;26.80;92.80;;;;;;5134902;27;20770;-81
2022/07/27 12:45:47;;;;;;;3.33;1.40;;;27.40;90.90;;;;;;5134839;27;20663;-81
2022/07/27 12:48:17;;;;;;;2.93;1.60;;;27.90;90.10;;;;;;5135177;27;20219;-80
2022/07/27 12:50:47;;;;;;;2.90;1.50;;;27.90;83.60;;;;;;5135734;27;20236;-81
2022/07/27 12:53:16;;;;;;;4.30;1.50;;;27.70;86.70;;;;;;5135076;27;20209;-81
2022/07/27 12:55:46;;;;;;;2.80;1.50;;;27.60;90.10;;;;;;5134916;27;20698;-79
2022/07/27 12:58:15;;;;;;;1.83;1.40;;;27.20;90.70;;;;;;5134983;27;20232;-81
2022/07/27 13:00:44;;;;;;;4.10;1.80;;;26.90;91.10;;;;;;5134635;27;20205;-80
2022/07/27 13:03:13;;;;;;;2.10;1.50;;;26.60;92.10;;;;;;5134925;27;20600;-79
2022/07/27 13:05:44;;;;;;;1.80;1.37;;;26.90;92.20;;;;;;5134557;27;20270;-79
2022/07/27 13:08:14;;;;;;;2.90;1.60;;;27.40;90.10;;;;;;5135160;27;20228;-81
2022/07/27 13:10:44;;;;;;;2.30;1.50;;;27.90;90.60;;;;;;5134641;27;20240;-81
2022/07/27 13:13:14;;;;;;;2.50;1.37;;;27.90;85.00;;;;;;5134529;27;20205;-83